createdAt,value
2022-12-01T00:00:08.312Z,34.25
2022-12-01T00:02:51.113Z,49.28
2022-12-01T00:05:33.817Z,51.92
2022-12-01T00:08:16.484Z,37.28
2022-12-01T00:11:03.603Z,32.90
2022-12-01T00:13:47.659Z,48.10
2022-12-01T00:16:30.578Z,45.78
2022-12-01T00:19:13.451Z,35.05
2022-12-01T00:21:56.104Z,49.88
2022-12-01T00:24:38.883Z,52.25
2022-12-01T00:27:21.582Z,39.75
2022-12-01T00:30:06.958Z,36.75
2022-12-01T00:32:50.084Z,46.10
2022-12-01T00:35:32.804Z,54.22
2022-12-01T00:38:15.521Z,35.13
2022-12-01T00:40:58.243Z,37.78
2022-12-01T00:43:40.919Z,55.05
2022-12-01T00:46:25.027Z,38.47
2022-12-01T00:49:07.880Z,35.15
2022-12-01T00:51:50.557Z,52.38
2022-12-01T00:54:33.238Z,52.25
2022-12-01T00:57:16.067Z,39.35
2022-12-01T00:59:58.867Z,38.00
2022-12-01T01:02:42.928Z,54.88
2022-12-01T01:05:25.771Z,54.63
2022-12-01T01:08:08.874Z,34.20
2022-12-01T01:10:51.770Z,38.95
2022-12-01T01:13:34.578Z,33.90
2022-12-01T01:16:18.765Z,34.35
2022-12-01T01:19:02.958Z,34.97
2022-12-01T01:21:45.705Z,33.20
2022-12-01T01:24:28.505Z,32.97
2022-12-01T01:27:11.240Z,34.50
2022-12-01T01:29:54.053Z,37.63
2022-12-01T01:32:36.777Z,36.20
2022-12-01T01:35:20.814Z,35.95
2022-12-01T01:38:03.625Z,30.48
2022-12-01T01:40:46.739Z,36.17
2022-12-01T01:43:40.122Z,56.17
2022-12-01T01:46:23.954Z,53.03
2022-12-01T01:49:08.050Z,37.20
2022-12-01T01:51:53.718Z,55.67
2022-12-01T01:54:38.552Z,53.72
2022-12-01T01:57:23.953Z,40.72
2022-12-01T02:00:08.753Z,39.90
2022-12-01T02:02:59.433Z,33.40
2022-12-01T02:05:44.746Z,39.22
2022-12-01T02:08:29.197Z,50.03
2022-12-01T02:11:25.561Z,48.97
2022-12-01T02:14:11.482Z,34.92
2022-12-01T02:16:56.664Z,51.58
2022-12-01T02:19:46.043Z,55.30
2022-12-01T02:22:31.389Z,53.30
2022-12-01T02:25:26.447Z,48.70
2022-12-01T02:28:20.352Z,54.22
2022-12-01T02:31:09.352Z,36.08
2022-12-01T02:33:54.867Z,36.55
2022-12-01T02:36:39.520Z,32.30
2022-12-01T02:39:23.590Z,34.90
2022-12-01T02:42:10.679Z,35.03
2022-12-01T02:44:54.033Z,36.20
2022-12-01T02:47:38.363Z,33.72
2022-12-01T02:50:23.218Z,36.10
2022-12-01T02:53:06.966Z,37.08
2022-12-01T02:55:50.313Z,36.33
2022-12-01T02:58:33.050Z,33.08
2022-12-01T03:01:27.240Z,34.95
2022-12-01T03:04:19.760Z,36.72
2022-12-01T03:07:07.129Z,34.05
2022-12-01T03:09:53.571Z,46.03
2022-12-01T03:12:39.574Z,43.65
2022-12-01T03:15:29.762Z,45.67
2022-12-01T03:18:19.113Z,45.45
2022-12-01T03:21:06.835Z,51.55
2022-12-01T03:23:51.414Z,49.80
2022-12-01T03:26:35.164Z,48.42
2022-12-01T03:29:20.415Z,52.63
2022-12-01T03:32:05.484Z,54.00
2022-12-01T03:34:50.859Z,49.65
2022-12-01T03:37:37.658Z,47.78
2022-12-01T03:40:22.551Z,46.13
2022-12-01T03:43:08.415Z,49.33
2022-12-01T03:45:54.915Z,50.28
2022-12-01T03:48:38.362Z,51.58
2022-12-01T03:51:24.111Z,51.33
2022-12-01T03:54:09.646Z,52.25
2022-12-01T03:56:55.100Z,55.17
2022-12-01T03:59:38.725Z,50.85
2022-12-01T04:02:21.597Z,54.17
2022-12-01T04:05:04.866Z,48.58
2022-12-01T04:07:47.662Z,38.97
2022-12-01T04:10:32.971Z,50.80
2022-12-01T04:13:22.680Z,56.63
2022-12-01T04:16:05.611Z,56.17
2022-12-01T04:18:48.403Z,53.40
2022-12-01T04:21:31.119Z,59.35
2022-12-01T04:24:14.116Z,56.03
2022-12-01T04:26:58.230Z,53.22
2022-12-01T04:29:40.982Z,53.03
2022-12-01T04:32:23.593Z,50.47
2022-12-01T04:35:07.004Z,49.38
2022-12-01T04:37:49.634Z,48.63
2022-12-01T04:40:32.329Z,52.45
2022-12-01T04:43:16.397Z,58.13
2022-12-01T04:45:58.996Z,47.63
2022-12-01T04:48:41.710Z,50.83
2022-12-01T04:51:24.523Z,53.47
2022-12-01T04:54:07.285Z,54.75
2022-12-01T04:56:49.948Z,55.35
2022-12-01T04:59:34.167Z,54.40
2022-12-01T05:02:17.366Z,50.30
2022-12-01T05:05:00.074Z,51.65
2022-12-01T05:07:42.800Z,50.97
2022-12-01T05:10:25.693Z,57.78
2022-12-01T05:13:08.387Z,57.22
2022-12-01T05:15:52.886Z,53.20
2022-12-01T05:18:35.962Z,52.35
2022-12-01T05:21:17.981Z,53.35
2022-12-01T05:24:00.665Z,54.90
2022-12-01T05:26:44.014Z,54.95
2022-12-01T05:29:26.813Z,52.03
2022-12-01T05:32:10.978Z,53.47
2022-12-01T05:34:53.783Z,59.72
2022-12-01T05:37:36.505Z,53.83
2022-12-01T05:40:19.316Z,55.83
2022-12-01T05:43:02.048Z,55.90
2022-12-01T05:45:44.713Z,57.67
2022-12-01T05:48:28.895Z,55.90
2022-12-01T05:51:11.997Z,58.40
2022-12-01T05:53:55.197Z,56.97
2022-12-01T05:56:37.862Z,50.22
2022-12-01T05:59:20.451Z,52.00
2022-12-01T06:02:03.160Z,55.05
2022-12-01T06:04:47.222Z,59.05
2022-12-01T06:07:29.980Z,52.67
2022-12-01T06:10:12.941Z,56.55
2022-12-01T06:12:55.632Z,57.38
2022-12-01T06:15:38.366Z,46.92
2022-12-01T06:18:21.010Z,37.90
2022-12-01T06:21:06.027Z,44.90
2022-12-01T06:23:48.987Z,65.57
2022-12-01T06:26:31.704Z,64.30
2022-12-01T06:29:14.579Z,44.78
2022-12-01T06:31:57.281Z,44.30
2022-12-01T06:34:40.059Z,41.40
2022-12-01T06:37:24.187Z,43.72
2022-12-01T06:40:07.941Z,37.50
2022-12-01T06:42:50.865Z,36.75
2022-12-01T06:45:33.648Z,42.05
2022-12-01T06:48:16.416Z,64.32
2022-12-01T06:50:59.395Z,66.80
2022-12-01T06:53:43.656Z,47.03
2022-12-01T06:56:26.400Z,40.45
2022-12-01T06:59:09.275Z,43.85
2022-12-01T07:01:52.377Z,41.88
2022-12-01T07:04:35.021Z,43.03
2022-12-01T07:07:17.834Z,44.17
2022-12-01T07:10:01.920Z,44.33
2022-12-01T07:12:44.578Z,37.30
2022-12-01T07:15:28.744Z,37.78
2022-12-01T07:18:11.515Z,38.88
2022-12-01T07:20:54.200Z,39.08
2022-12-01T07:23:37.145Z,41.58
2022-12-01T07:26:21.875Z,41.58
2022-12-01T07:29:04.674Z,38.67
2022-12-01T07:31:47.814Z,39.67
2022-12-01T07:34:30.586Z,37.45
2022-12-01T07:37:13.303Z,38.78
2022-12-01T07:39:56.051Z,38.90
2022-12-01T07:42:43.162Z,43.28
2022-12-01T07:45:25.950Z,37.75
2022-12-01T07:48:08.610Z,39.08
2022-12-01T07:50:51.412Z,36.20
2022-12-01T07:53:34.478Z,39.05
2022-12-01T07:56:17.819Z,36.70
2022-12-01T07:59:01.837Z,39.17
2022-12-01T08:01:46.027Z,41.17
2022-12-01T08:04:28.925Z,35.13
2022-12-01T08:07:11.679Z,36.15
2022-12-01T08:09:54.318Z,35.92
2022-12-01T08:12:37.018Z,38.60
2022-12-01T08:15:21.051Z,35.90
2022-12-01T08:18:03.723Z,35.88
2022-12-01T08:20:46.418Z,36.33
2022-12-01T08:23:29.110Z,37.40
2022-12-01T08:26:13.911Z,36.15
2022-12-01T08:28:56.584Z,41.55
2022-12-01T08:31:40.692Z,35.28
2022-12-01T08:34:23.423Z,34.67
2022-12-01T08:37:06.073Z,36.92
2022-12-01T08:39:49.142Z,39.00
2022-12-01T08:42:31.886Z,33.92
2022-12-01T08:45:14.566Z,42.15
2022-12-01T08:47:59.810Z,49.35
2022-12-01T08:50:42.825Z,52.65
2022-12-01T08:53:25.481Z,51.85
2022-12-01T08:56:09.711Z,51.67
2022-12-01T08:58:52.659Z,49.55
2022-12-01T09:01:35.943Z,49.88
2022-12-01T09:04:20.409Z,49.80
2022-12-01T09:07:03.146Z,51.53
2022-12-01T09:09:46.663Z,46.65
2022-12-01T09:12:30.025Z,40.33
2022-12-01T09:15:12.704Z,33.50
2022-12-01T09:17:55.492Z,36.70
2022-12-01T09:20:39.591Z,34.83
2022-12-01T09:23:22.903Z,32.63
2022-12-01T09:26:08.682Z,31.75
2022-12-01T09:28:54.416Z,35.53
2022-12-01T09:31:37.581Z,35.90
2022-12-01T09:34:20.900Z,34.97
2022-12-01T09:37:04.978Z,38.30
2022-12-01T09:39:48.073Z,45.53
2022-12-01T09:42:35.353Z,40.05
2022-12-01T09:45:21.138Z,45.75
2022-12-01T09:48:04.832Z,40.47
2022-12-01T09:50:47.739Z,41.45
2022-12-01T09:53:31.930Z,41.83
2022-12-01T09:56:20.003Z,40.38
2022-12-01T09:59:03.643Z,37.63
2022-12-01T10:01:49.156Z,37.88
2022-12-01T10:04:35.354Z,38.28
2022-12-01T10:07:20.410Z,37.78
2022-12-01T10:10:06.208Z,34.33
2022-12-01T10:12:49.027Z,33.38
2022-12-01T10:15:36.324Z,37.95
2022-12-01T10:18:24.515Z,35.08
2022-12-01T10:21:10.798Z,37.83
2022-12-01T10:24:00.707Z,37.28
2022-12-01T10:26:50.634Z,36.70
2022-12-01T10:29:38.410Z,40.35
2022-12-01T10:32:22.165Z,26.58
2022-12-01T10:35:05.781Z,38.63
2022-12-01T10:37:56.083Z,39.90
2022-12-01T10:40:38.828Z,38.88
2022-12-01T10:43:26.898Z,40.10
2022-12-01T10:46:17.785Z,39.58
2022-12-01T10:49:01.486Z,37.72
2022-12-01T10:51:48.971Z,34.22
2022-12-01T10:54:33.578Z,37.45
2022-12-01T10:57:17.509Z,35.47
2022-12-01T11:00:03.347Z,34.60
2022-12-01T11:02:46.351Z,30.20
2022-12-01T11:05:32.752Z,33.88
2022-12-01T11:08:22.612Z,34.40
2022-12-01T11:11:06.056Z,39.25
2022-12-01T11:13:48.766Z,34.40
2022-12-01T11:16:50.251Z,33.17
2022-12-01T11:19:36.024Z,35.13
2022-12-01T11:22:32.957Z,27.98
2022-12-01T11:25:21.029Z,26.27
2022-12-01T11:28:05.504Z,24.63
2022-12-01T11:31:02.945Z,26.95
2022-12-01T11:33:52.631Z,24.23
2022-12-01T11:36:38.701Z,26.38
2022-12-01T11:39:23.587Z,30.55
2022-12-01T11:42:08.036Z,20.88
2022-12-01T11:44:53.453Z,14.32
2022-12-01T11:47:36.334Z,21.75
2022-12-01T11:50:25.382Z,21.88
2022-12-01T11:53:26.432Z,25.77
2022-12-01T11:56:16.611Z,21.85
2022-12-01T11:59:01.707Z,19.50
2022-12-01T12:01:53.073Z,22.98
2022-12-01T12:04:42.717Z,21.08
2022-12-01T12:07:30.970Z,16.23
2022-12-01T12:10:22.923Z,25.17
2022-12-01T12:13:29.419Z,20.35
2022-12-01T12:16:17.678Z,24.65
2022-12-01T12:19:07.887Z,24.17
2022-12-01T12:21:54.677Z,24.52
2022-12-01T12:24:42.824Z,25.70
2022-12-01T12:27:30.550Z,29.48
2022-12-01T12:30:20.458Z,33.53
2022-12-01T12:33:10.909Z,32.95
2022-12-01T12:35:58.877Z,28.88
2022-12-01T12:38:49.397Z,33.75
2022-12-01T12:41:36.653Z,36.58
2022-12-01T12:44:30.013Z,38.05
2022-12-01T12:47:30.886Z,33.72
2022-12-01T12:50:18.448Z,35.00
2022-12-01T12:53:03.675Z,37.42
2022-12-01T12:55:47.805Z,40.03
2022-12-01T12:58:34.202Z,39.67
2022-12-01T13:01:19.987Z,40.38
2022-12-01T13:04:05.546Z,34.40
2022-12-01T13:06:49.936Z,34.85
2022-12-01T13:09:33.871Z,37.20
2022-12-01T13:12:27.193Z,42.33
2022-12-01T13:15:15.772Z,35.15
2022-12-01T13:18:03.275Z,24.27
2022-12-01T13:20:46.524Z,27.10
2022-12-01T13:23:29.836Z,35.28
2022-12-01T13:26:14.076Z,34.08
2022-12-01T13:28:58.396Z,29.75
2022-12-01T13:31:45.438Z,32.30
2022-12-01T13:34:32.939Z,32.08
2022-12-01T13:37:26.408Z,30.23
2022-12-01T13:40:10.589Z,29.38
2022-12-01T13:42:58.458Z,33.42
2022-12-01T13:45:41.603Z,31.38
2022-12-01T13:48:28.914Z,31.25
2022-12-01T13:51:13.073Z,32.45
2022-12-01T13:54:02.821Z,33.60
2022-12-01T13:56:47.608Z,28.00
2022-12-01T14:00:02.879Z,28.58
2022-12-01T14:03:12.558Z,25.90
2022-12-01T14:05:57.032Z,28.20
2022-12-01T14:08:47.885Z,25.75
2022-12-01T14:11:31.093Z,24.08
2022-12-01T14:14:25.574Z,25.95
2022-12-01T14:17:27.562Z,22.42
2022-12-01T14:20:22.983Z,21.27
2022-12-01T14:23:17.193Z,18.70
2022-12-01T14:26:10.620Z,15.70
2022-12-01T14:29:10.976Z,16.35
2022-12-01T14:32:27.044Z,17.77
2022-12-01T14:35:13.799Z,14.55
2022-12-01T14:37:56.892Z,16.45
2022-12-01T14:40:40.344Z,14.07
2022-12-01T14:43:43.952Z,19.77
2022-12-01T14:46:28.597Z,17.05
2022-12-01T14:49:14.094Z,18.80
2022-12-01T14:51:59.946Z,18.38
2022-12-01T14:54:44.690Z,19.52
2022-12-01T14:57:30.354Z,17.35
2022-12-01T15:00:16.759Z,20.48
2022-12-01T15:03:01.118Z,23.55
2022-12-01T15:05:44.516Z,17.48
2022-12-01T15:11:31.184Z,20.13
2022-12-01T15:14:37.867Z,18.20
2022-12-01T15:17:30.234Z,17.15
2022-12-01T15:20:29.545Z,21.90
2022-12-01T15:23:14.686Z,20.67
2022-12-01T15:25:57.943Z,21.40
2022-12-01T15:28:40.617Z,19.25
2022-12-01T15:31:23.745Z,19.48
2022-12-01T15:34:10.650Z,17.83
2022-12-01T15:36:53.954Z,17.70
2022-12-01T15:39:38.179Z,15.60
2022-12-01T15:42:24.271Z,16.52
2022-12-01T15:45:17.668Z,17.42
2022-12-01T15:48:00.679Z,14.88
2022-12-01T15:50:46.764Z,15.85
2022-12-01T15:53:32.879Z,14.00
2022-12-01T15:56:15.885Z,15.48
2022-12-01T15:59:03.002Z,17.25
2022-12-01T16:01:46.046Z,13.07
2022-12-01T16:04:32.133Z,15.32
2022-12-01T16:07:16.676Z,15.95
2022-12-01T16:10:00.658Z,15.20
2022-12-01T16:12:43.469Z,16.38
2022-12-01T16:15:26.166Z,17.25
2022-12-01T16:18:25.454Z,20.98
2022-12-01T16:21:08.173Z,16.23
2022-12-01T16:23:58.590Z,17.23
2022-12-01T16:26:47.451Z,14.90
2022-12-01T16:29:30.990Z,15.20
2022-12-01T16:32:20.992Z,17.17
2022-12-01T16:35:04.945Z,17.05
2022-12-01T16:37:47.602Z,15.38
2022-12-01T16:40:32.269Z,16.45
2022-12-01T16:43:16.010Z,16.90
2022-12-01T16:46:00.380Z,17.85
2022-12-01T16:48:43.215Z,18.77
2022-12-01T16:51:35.574Z,15.90
2022-12-01T16:54:28.597Z,16.45
2022-12-01T16:57:12.701Z,19.25
2022-12-01T16:59:55.573Z,18.63
2022-12-01T17:02:38.331Z,20.23
2022-12-01T17:05:21.186Z,21.83
2022-12-01T17:08:04.104Z,18.65
2022-12-01T17:10:49.500Z,22.00
2022-12-01T17:13:33.699Z,22.77
2022-12-01T17:16:18.707Z,18.92
2022-12-01T17:19:01.733Z,21.30
2022-12-01T17:21:44.611Z,25.58
2022-12-01T17:24:27.583Z,24.58
2022-12-01T17:27:10.376Z,23.40
2022-12-01T17:29:54.431Z,25.15
2022-12-01T17:32:37.419Z,24.85
2022-12-01T17:35:20.381Z,25.55
2022-12-01T17:38:03.199Z,26.10
2022-12-01T17:40:45.909Z,24.25
2022-12-01T17:43:29.127Z,27.40
2022-12-01T17:46:13.671Z,26.92
2022-12-01T17:48:56.651Z,26.17
2022-12-01T17:51:39.562Z,27.85
2022-12-01T17:54:22.505Z,29.25
2022-12-01T17:57:07.276Z,32.00
2022-12-01T17:59:50.272Z,32.50
2022-12-01T18:02:34.425Z,30.50
2022-12-01T18:05:17.267Z,24.75
2022-12-01T18:08:00.108Z,27.98
2022-12-01T18:10:42.881Z,29.70
2022-12-01T18:13:25.999Z,26.67
2022-12-01T18:16:09.012Z,28.88
2022-12-01T18:18:53.593Z,26.92
2022-12-01T18:21:36.406Z,32.22
2022-12-01T18:24:19.316Z,30.67
2022-12-01T18:27:02.113Z,33.67
2022-12-01T18:29:44.930Z,34.60
2022-12-01T18:32:27.969Z,29.35
2022-12-01T18:35:12.127Z,35.50
2022-12-01T18:37:55.462Z,36.38
2022-12-01T18:40:38.781Z,33.60
2022-12-01T18:43:21.682Z,32.95
2022-12-01T18:46:05.295Z,32.30
2022-12-01T18:48:49.788Z,35.83
2022-12-01T18:51:35.155Z,39.10
2022-12-01T18:54:17.979Z,32.05
2022-12-01T18:57:00.724Z,35.40
2022-12-01T18:59:43.429Z,34.35
2022-12-01T19:02:26.345Z,38.72
2022-12-01T19:05:09.572Z,39.22
2022-12-01T19:07:54.750Z,36.05
2022-12-01T19:10:37.633Z,34.70
2022-12-01T19:13:20.705Z,37.33
2022-12-01T19:16:06.639Z,32.97
2022-12-01T19:18:49.957Z,34.95
2022-12-01T19:21:32.704Z,32.95
2022-12-01T19:24:17.023Z,34.38
2022-12-01T19:26:59.771Z,37.03
2022-12-01T19:29:42.435Z,33.70
2022-12-01T19:32:25.752Z,38.83
2022-12-01T19:35:09.163Z,34.33
2022-12-01T19:37:52.253Z,35.33
2022-12-01T19:40:38.580Z,36.08
2022-12-01T19:43:21.391Z,38.17
2022-12-01T19:46:05.858Z,38.60
2022-12-01T19:48:48.985Z,40.83
2022-12-01T19:51:35.370Z,32.35
2022-12-01T19:54:19.159Z,28.42
2022-12-01T19:57:03.360Z,27.05
2022-12-01T19:59:46.361Z,25.05
2022-12-01T20:02:29.645Z,26.27
2022-12-01T20:05:12.494Z,26.05
2022-12-01T20:07:55.217Z,27.67
2022-12-01T20:10:38.099Z,27.00
2022-12-01T20:13:22.224Z,25.77
2022-12-01T20:16:05.979Z,28.35
2022-12-01T20:18:49.574Z,25.25
2022-12-01T20:21:32.996Z,26.42
2022-12-01T20:24:18.546Z,22.95
2022-12-01T20:27:01.765Z,29.65
2022-12-01T20:29:45.906Z,26.63
2022-12-01T20:32:29.036Z,30.02
2022-12-01T20:35:11.895Z,24.98
2022-12-01T20:37:55.312Z,24.55
2022-12-01T20:40:39.170Z,28.85
2022-12-01T20:43:21.946Z,27.45
2022-12-01T20:46:06.809Z,23.17
2022-12-01T20:48:49.656Z,20.98
2022-12-01T20:51:33.182Z,24.20
2022-12-01T20:54:27.904Z,22.95
2022-12-01T20:57:11.394Z,21.42
2022-12-01T20:59:54.120Z,21.83
2022-12-01T21:02:38.434Z,26.15
2022-12-01T21:05:21.391Z,17.15
2022-12-01T21:08:04.366Z,19.23
2022-12-01T21:10:47.331Z,20.30
2022-12-01T21:13:42.213Z,21.65
2022-12-01T21:16:27.166Z,19.77
2022-12-01T21:19:15.862Z,22.73
2022-12-01T21:21:59.437Z,27.52
2022-12-01T21:24:43.960Z,20.95
2022-12-01T21:27:27.164Z,22.50
2022-12-01T21:30:16.444Z,20.48
2022-12-01T21:33:11.615Z,20.83
2022-12-01T21:35:56.116Z,21.00
2022-12-01T21:38:38.912Z,20.50
2022-12-01T21:41:24.798Z,19.88
2022-12-01T21:44:12.430Z,21.80
2022-12-01T21:46:57.239Z,21.13
2022-12-01T21:49:40.410Z,19.50
2022-12-01T21:52:29.858Z,23.33
2022-12-01T21:55:27.476Z,21.15
2022-12-01T21:58:16.311Z,23.33
2022-12-01T22:00:59.925Z,21.25
2022-12-01T22:03:45.003Z,23.83
2022-12-01T22:06:30.648Z,21.75
2022-12-01T22:09:15.744Z,20.55
2022-12-01T22:12:00.765Z,25.23
2022-12-01T22:14:43.485Z,21.52
2022-12-01T22:17:26.431Z,24.45
2022-12-01T22:20:22.670Z,20.70
2022-12-01T22:23:10.258Z,21.63
2022-12-01T22:25:54.476Z,26.00
2022-12-01T22:28:37.455Z,24.33
2022-12-01T22:31:21.717Z,23.17
2022-12-01T22:34:05.047Z,22.73
2022-12-01T22:36:47.753Z,28.83
2022-12-01T22:39:31.499Z,21.65
2022-12-01T22:42:19.726Z,23.55
2022-12-01T22:45:03.842Z,27.60
2022-12-01T22:47:46.647Z,25.48
2022-12-01T22:50:31.054Z,25.35
2022-12-01T22:53:15.920Z,28.58
2022-12-01T22:56:01.211Z,26.52
2022-12-01T22:58:45.250Z,25.55
2022-12-01T23:01:30.071Z,23.98
2022-12-01T23:04:24.216Z,25.58
2022-12-01T23:07:10.587Z,28.00
2022-12-01T23:09:53.515Z,26.92
2022-12-01T23:12:36.770Z,27.88
2022-12-01T23:15:37.367Z,30.38
2022-12-01T23:18:23.067Z,28.77
2022-12-01T23:21:05.999Z,28.65
2022-12-01T23:23:48.791Z,28.73
2022-12-01T23:26:31.800Z,28.50
2022-12-01T23:29:14.640Z,33.72
2022-12-01T23:31:57.441Z,31.80
2022-12-01T23:34:41.792Z,26.63
2022-12-01T23:37:30.488Z,31.45
2022-12-01T23:40:17.184Z,29.50
2022-12-01T23:43:03.577Z,29.27
2022-12-01T23:45:46.712Z,29.08
2022-12-01T23:48:32.882Z,30.77
2022-12-01T23:51:19.404Z,29.42
2022-12-01T23:54:09.396Z,30.88
2022-12-01T23:56:53.257Z,25.67
2022-12-01T23:59:38.191Z,28.85
